Time;durP1;ratioP1;P1;durP2;ratioP2;P2;SDS_P1;SDS_P2;PMS_P1;PMS_P2;Temp;Humidity;BMP_temperature;BMP_pressure;BME280_temperature;BME280_humidity;BME280_pressure;Samples;Min_cycle;Max_cycle;Signal;HPM_P1;HPM_P2
2022/12/16 00:01:31;;;;;;;44.60;24.07;;;;;;;;;;5041760;28;20629;-72
2022/12/16 00:04:35;;;;;;;39.07;22.10;;;;;;;;;;5054329;28;20618;-72
2022/12/16 00:07:40;;;;;;;43.07;24.13;;;;;;;;;;5053864;28;20546;-72
2022/12/16 00:10:53;;;;;;;39.77;22.67;;;;;;;;;;5041924;28;20546;-72
2022/12/16 00:13:57;;;;;;;44.13;24.53;;;;;;;;;;5053489;28;20554;-72
2022/12/16 00:17:02;;;;;;;45.57;23.40;;;;;;;;;;5053723;28;20566;-72
2022/12/16 00:20:06;;;;;;;42.03;22.17;;;;;;;;;;5030174;28;20554;-72
2022/12/16 00:23:10;;;;;;;43.37;23.10;;;;;;;;;;5040994;28;20625;-73
2022/12/16 00:26:14;;;;;;;42.57;22.27;;;;;;;;;;5029723;28;20602;-73
2022/12/16 00:29:18;;;;;;;44.53;24.03;;;;;;;;;;5040990;28;20558;-72
2022/12/16 00:32:22;;;;;;;42.27;22.87;;;;;;;;;;5041240;28;21226;-73
2022/12/16 00:35:26;;;;;;;45.13;23.40;;;;;;;;;;5041431;28;20598;-73
2022/12/16 00:38:30;;;;;;;45.97;22.27;;;;;;;;;;5053692;28;21091;-73
2022/12/16 00:41:35;;;;;;;41.40;24.00;;;;;;;;;;5053286;28;20626;-73
2022/12/16 00:44:40;;;;;;;39.37;22.23;;;;;;;;;;5053388;28;20546;-73
2022/12/16 00:47:45;;;;;;;40.77;23.03;;;;;;;;;;5041109;28;20558;-73
2022/12/16 00:50:51;;;;;;;43.37;22.83;;;;;;;;;;5053456;28;20549;-73
2022/12/16 00:53:55;;;;;;;35.73;20.67;;;;;;;;;;5041146;28;20544;-73
2022/12/16 00:56:59;;;;;;;41.60;23.13;;;;;;;;;;5040904;28;20924;-73
2022/12/16 01:00:04;;;;;;;37.73;22.23;;;;;;;;;;5053242;28;20550;-73
2022/12/16 01:03:09;;;;;;;45.10;23.13;;;;;;;;;;5040733;28;20985;-73
2022/12/16 01:06:15;;;;;;;39.63;22.63;;;;;;;;;;5053340;28;20542;-73
2022/12/16 01:09:20;;;;;;;37.73;22.23;;;;;;;;;;5041107;28;20550;-73
2022/12/16 01:12:24;;;;;;;42.03;23.30;;;;;;;;;;5040617;28;20625;-73
2022/12/16 01:15:28;;;;;;;37.87;22.37;;;;;;;;;;5052964;28;21008;-73
2022/12/16 01:18:33;;;;;;;39.13;21.60;;;;;;;;;;5052758;28;20561;-73
2022/12/16 01:21:37;;;;;;;45.33;22.43;;;;;;;;;;5040392;28;20637;-73
2022/12/16 01:24:43;;;;;;;43.70;23.63;;;;;;;;;;5040387;28;20633;-73
2022/12/16 01:27:47;;;;;;;43.53;23.50;;;;;;;;;;5044533;28;21099;-73
2022/12/16 01:30:56;;;;;;;48.00;23.43;;;;;;;;;;5056015;28;20589;-73
2022/12/16 01:34:00;;;;;;;45.57;24.10;;;;;;;;;;5056034;28;20601;-73
2022/12/16 01:37:05;;;;;;;46.77;23.00;;;;;;;;;;5056344;28;20554;-73
2022/12/16 01:40:17;;;;;;;43.10;23.30;;;;;;;;;;5043934;28;21088;-73
2022/12/16 01:43:33;;;;;;;49.17;23.37;;;;;;;;;;5055894;28;20546;-73
2022/12/16 01:46:37;;;;;;;48.17;25.20;;;;;;;;;;5056396;28;21088;-73
2022/12/16 01:50:15;;;;;;;43.37;22.93;;;;;;;;;;5055808;28;20608;-73
2022/12/16 01:53:19;;;;;;;48.07;24.17;;;;;;;;;;5055733;28;20538;-73
2022/12/16 01:56:27;;;;;;;47.87;24.77;;;;;;;;;;5043648;28;20605;-73
2022/12/16 01:59:34;;;;;;;51.03;25.13;;;;;;;;;;5043603;28;20549;-73
2022/12/16 02:02:41;;;;;;;50.10;26.57;;;;;;;;;;5043237;28;20629;-73
2022/12/16 02:05:46;;;;;;;48.30;25.20;;;;;;;;;;5043528;28;20538;-73
2022/12/16 02:08:55;;;;;;;47.87;24.67;;;;;;;;;;5055734;28;20542;-73
2022/12/16 02:12:37;;;;;;;48.87;25.60;;;;;;;;;;5055536;28;20625;-73
2022/12/16 02:15:51;;;;;;;47.87;25.43;;;;;;;;;;5047229;28;20677;-73
2022/12/16 02:19:19;;;;;;;45.00;23.47;;;;;;;;;;5043267;28;20550;-73
2022/12/16 02:22:35;;;;;;;44.90;23.77;;;;;;;;;;5033391;28;20656;-73
2022/12/16 02:25:58;;;;;;;49.27;25.80;;;;;;;;;;5042965;28;20621;-73
2022/12/16 02:29:21;;;;;;;45.80;25.60;;;;;;;;;;5043070;28;20546;-73
2022/12/16 02:32:50;;;;;;;50.00;23.30;;;;;;;;;;5055166;28;20993;-72
2022/12/16 02:36:20;;;;;;;51.57;25.70;;;;;;;;;;5042249;28;20597;-72
2022/12/16 02:39:33;;;;;;;47.03;24.93;;;;;;;;;;5054994;28;20546;-72
2022/12/16 02:42:49;;;;;;;50.93;26.13;;;;;;;;;;5054721;28;20637;-73
2022/12/16 02:45:53;;;;;;;51.67;26.53;;;;;;;;;;5042596;28;20547;-72
2022/12/16 02:49:07;;;;;;;52.50;27.37;;;;;;;;;;5042328;28;20550;-72
2022/12/16 02:52:13;;;;;;;50.63;26.97;;;;;;;;;;5042773;28;21194;-73
2022/12/16 02:55:17;;;;;;;50.80;26.70;;;;;;;;;;5031303;28;20609;-73
2022/12/16 02:58:56;;;;;;;52.47;26.20;;;;;;;;;;5054545;28;21185;-73
2022/12/16 03:02:26;;;;;;;55.37;26.23;;;;;;;;;;5054615;28;20645;-72
2022/12/16 03:05:39;;;;;;;53.90;27.10;;;;;;;;;;5054703;28;20542;-73
2022/12/16 03:08:50;;;;;;;55.50;26.27;;;;;;;;;;5055018;28;20601;-73
2022/12/16 03:11:56;;;;;;;53.00;26.10;;;;;;;;;;5054437;28;20629;-73
2022/12/16 03:15:01;;;;;;;50.80;25.90;;;;;;;;;;5054677;28;20546;-73
2022/12/16 03:18:09;;;;;;;53.10;27.03;;;;;;;;;;5054446;28;20562;-73
2022/12/16 03:21:14;;;;;;;50.67;26.37;;;;;;;;;;5053980;28;21206;-73
2022/12/16 03:24:18;;;;;;;53.10;26.27;;;;;;;;;;5054470;28;20636;-73
2022/12/16 03:27:53;;;;;;;56.80;26.73;;;;;;;;;;5054181;28;20542;-73
2022/12/16 03:31:06;;;;;;;52.83;26.97;;;;;;;;;;5054435;28;20546;-73
2022/12/16 03:34:18;;;;;;;51.07;26.50;;;;;;;;;;5030757;28;20597;-73
2022/12/16 03:37:27;;;;;;;56.13;26.73;;;;;;;;;;5054069;28;20605;-73
2022/12/16 03:40:32;;;;;;;54.53;26.93;;;;;;;;;;5041817;28;20558;-72
2022/12/16 03:43:37;;;;;;;49.97;26.50;;;;;;;;;;5054558;28;20542;-73
2022/12/16 03:46:41;;;;;;;51.40;27.33;;;;;;;;;;5053880;28;20543;-72
2022/12/16 03:49:45;;;;;;;48.80;26.60;;;;;;;;;;5030019;28;20566;-73
2022/12/16 03:52:49;;;;;;;53.30;27.20;;;;;;;;;;5041204;28;20625;-73
2022/12/16 03:55:54;;;;;;;56.67;28.60;;;;;;;;;;5053437;28;20621;-73
2022/12/16 03:58:59;;;;;;;47.77;26.67;;;;;;;;;;5053662;28;21116;-73
2022/12/16 04:02:03;;;;;;;54.73;27.17;;;;;;;;;;5053555;28;20632;-73
2022/12/16 04:05:09;;;;;;;55.00;26.73;;;;;;;;;;5029806;28;20626;-73
2022/12/16 04:08:13;;;;;;;51.27;27.13;;;;;;;;;;5053576;28;20917;-73
2022/12/16 04:24:49;;;;;;;50.80;26.83;;;;;;;;;;5056619;22;21271;-85
2022/12/16 04:27:53;;;;;;;54.80;26.13;;;;;;;;;;5033038;28;20597;-85
2022/12/16 04:30:57;;;;;;;58.23;28.03;;;;;;;;;;5033476;28;20546;-86
